Time;durP1;ratioP1;P1;durP2;ratioP2;P2;SDS_P1;SDS_P2;PMS_P1;PMS_P2;Temp;Humidity;BMP_temperature;BMP_pressure;BME280_temperature;BME280_humidity;BME280_pressure;Samples;Min_cycle;Max_cycle;Signal;HPM_P1;HPM_P2
2021/03/06 00:02:03;;;;;;;7.67;4.83;;;;;;;;;;5043928;28;20665;-71
2021/03/06 00:04:28;;;;;;;7.13;4.00;;;;;;;;;;5052087;28;20182;-70
2021/03/06 00:06:54;;;;;;;7.13;4.43;;;;;;;;;;5049398;28;20257;-71
2021/03/06 00:09:19;;;;;;;6.40;4.77;;;;;;;;;;5045261;28;20295;-71
2021/03/06 00:11:44;;;;;;;8.30;4.50;;;;;;;;;;5036277;28;20256;-71
2021/03/06 00:14:09;;;;;;;7.10;4.03;;;;;;;;;;5045112;28;20283;-71
2021/03/06 00:16:34;;;;;;;12.33;5.03;;;;;;;;;;5040179;28;20178;-71
2021/03/06 00:18:59;;;;;;;9.47;5.50;;;;;;;;;;5049455;28;20210;-71
2021/03/06 00:21:25;;;;;;;8.27;4.70;;;;;;;;;;5040588;28;20261;-71
2021/03/06 00:23:50;;;;;;;8.90;4.63;;;;;;;;;;5039026;28;20653;-71
2021/03/06 00:26:15;;;;;;;7.13;4.30;;;;;;;;;;5039446;28;20317;-70
2021/03/06 00:28:40;;;;;;;7.30;4.33;;;;;;;;;;5042763;28;20651;-71
2021/03/06 00:31:05;;;;;;;8.23;4.37;;;;;;;;;;5038215;28;20329;-70
2021/03/06 00:33:30;;;;;;;7.67;5.77;;;;;;;;;;5040381;28;20220;-71
2021/03/06 00:35:56;;;;;;;9.80;4.53;;;;;;;;;;5048087;28;20178;-70
2021/03/06 00:38:21;;;;;;;7.47;5.07;;;;;;;;;;5044911;28;20181;-71
2021/03/06 00:40:46;;;;;;;8.00;4.73;;;;;;;;;;5050817;28;20177;-70
2021/03/06 00:43:11;;;;;;;8.40;4.20;;;;;;;;;;5042160;28;20592;-71
2021/03/06 00:45:36;;;;;;;10.30;4.83;;;;;;;;;;5050263;28;20185;-70
2021/03/06 00:48:02;;;;;;;7.43;4.20;;;;;;;;;;5039438;28;20258;-71
2021/03/06 00:50:28;;;;;;;5.83;4.33;;;;;;;;;;5038773;28;20205;-71
2021/03/06 00:52:53;;;;;;;8.17;4.40;;;;;;;;;;5038494;28;20749;-72
2021/03/06 00:55:19;;;;;;;6.07;4.13;;;;;;;;;;5037959;28;20198;-71
2021/03/06 00:57:44;;;;;;;6.63;4.57;;;;;;;;;;5048866;28;20174;-71
2021/03/06 01:00:09;;;;;;;10.63;5.53;;;;;;;;;;5039146;28;20336;-71
2021/03/06 01:02:35;;;;;;;12.83;4.80;;;;;;;;;;5048946;28;20194;-70
2021/03/06 01:05:00;;;;;;;13.17;4.60;;;;;;;;;;5034450;28;20665;-70
2021/03/06 01:07:25;;;;;;;9.73;5.00;;;;;;;;;;5022024;28;20277;-70
2021/03/06 01:09:50;;;;;;;10.17;5.10;;;;;;;;;;5045935;28;20288;-70
2021/03/06 01:12:15;;;;;;;9.10;5.07;;;;;;;;;;5044109;28;20316;-71
2021/03/06 01:14:41;;;;;;;10.33;4.67;;;;;;;;;;5047190;28;20178;-72
2021/03/06 01:17:06;;;;;;;8.93;4.60;;;;;;;;;;5040627;28;20260;-70
2021/03/06 01:19:31;;;;;;;6.77;4.60;;;;;;;;;;5046037;28;20244;-71
2021/03/06 01:21:57;;;;;;;6.63;4.87;;;;;;;;;;5038663;28;20655;-70
2021/03/06 01:24:22;;;;;;;6.30;4.40;;;;;;;;;;5050038;28;20673;-70
2021/03/06 01:26:48;;;;;;;8.40;4.70;;;;;;;;;;5052807;28;20186;-71
2021/03/06 01:29:13;;;;;;;7.67;4.43;;;;;;;;;;5050838;28;20201;-71
2021/03/06 01:31:38;;;;;;;12.33;5.13;;;;;;;;;;5047438;28;20185;-70
2021/03/06 01:34:04;;;;;;;13.33;4.73;;;;;;;;;;5050425;28;20296;-70
2021/03/06 01:36:29;;;;;;;7.47;4.20;;;;;;;;;;5048111;28;20185;-70
2021/03/06 01:38:54;;;;;;;6.23;4.13;;;;;;;;;;5047527;28;20283;-70
2021/03/06 01:41:19;;;;;;;9.30;4.40;;;;;;;;;;5045027;28;20186;-71
2021/03/06 01:43:44;;;;;;;6.87;4.60;;;;;;;;;;5051583;28;20709;-70
2021/03/06 01:46:10;;;;;;;9.97;4.70;;;;;;;;;;5049244;28;20239;-71
2021/03/06 01:48:37;;;;;;;7.53;4.73;;;;;;;;;;5046590;28;20220;-70
2021/03/06 01:51:02;;;;;;;7.53;4.53;;;;;;;;;;5044828;28;20193;-72
2021/03/06 01:53:28;;;;;;;9.30;4.60;;;;;;;;;;5048176;28;20278;-71
2021/03/06 01:55:53;;;;;;;11.20;4.47;;;;;;;;;;5047805;28;20646;-70
2021/03/06 01:58:18;;;;;;;9.77;4.67;;;;;;;;;;5046472;28;20177;-71
2021/03/06 02:00:44;;;;;;;10.17;5.10;;;;;;;;;;5047209;28;20198;-71
2021/03/06 02:03:09;;;;;;;9.43;5.10;;;;;;;;;;5042740;28;20642;-71
2021/03/06 02:05:34;;;;;;;9.80;4.30;;;;;;;;;;5049990;28;20292;-72
2021/03/06 02:08:01;;;;;;;9.07;5.33;;;;;;;;;;5047060;28;20228;-70
2021/03/06 02:10:37;;;;;;;7.40;4.50;;;;;;;;;;5050905;28;20576;-70
2021/03/06 02:13:05;;;;;;;9.60;5.13;;;;;;;;;;5036980;28;20217;-70
2021/03/06 02:15:41;;;;;;;12.80;4.23;;;;;;;;;;5047390;28;20174;-71
2021/03/06 02:18:09;;;;;;;8.03;4.97;;;;;;;;;;5038318;28;20189;-71
2021/03/06 02:20:37;;;;;;;15.83;5.43;;;;;;;;;;5046560;28;20666;-71
2021/03/06 02:23:15;;;;;;;10.33;4.70;;;;;;;;;;5041543;28;20552;-71
2021/03/06 02:25:43;;;;;;;10.53;4.43;;;;;;;;;;5046259;28;20189;-70
2021/03/06 02:28:27;;;;;;;7.70;4.57;;;;;;;;;;5045584;28;20185;-71
2021/03/06 02:30:55;;;;;;;6.67;4.60;;;;;;;;;;5045417;28;20200;-70
2021/03/06 02:33:21;;;;;;;9.47;4.47;;;;;;;;;;5053382;28;20629;-70
2021/03/06 02:35:48;;;;;;;10.63;4.63;;;;;;;;;;5051269;28;20190;-71
2021/03/06 02:38:15;;;;;;;5.97;4.07;;;;;;;;;;5052479;28;20177;-71
2021/03/06 02:40:41;;;;;;;10.63;5.00;;;;;;;;;;5058813;28;20571;-70
2021/03/06 02:43:09;;;;;;;9.97;5.23;;;;;;;;;;5050665;28;20212;-71
2021/03/06 02:45:34;;;;;;;7.20;4.20;;;;;;;;;;5056691;28;20185;-70
2021/03/06 02:48:00;;;;;;;7.67;4.73;;;;;;;;;;5051618;28;20681;-70
2021/03/06 02:50:25;;;;;;;9.97;6.10;;;;;;;;;;5052363;28;20327;-71
2021/03/06 02:52:50;;;;;;;6.00;4.40;;;;;;;;;;5044538;28;20197;-74
2021/03/06 02:55:15;;;;;;;7.90;4.30;;;;;;;;;;5053093;28;20208;-70
2021/03/06 02:57:58;;;;;;;8.77;4.63;;;;;;;;;;5049449;28;20610;-70
2021/03/06 03:00:35;;;;;;;5.50;4.40;;;;;;;;;;5046118;28;20213;-70
2021/03/06 03:03:04;;;;;;;10.03;4.77;;;;;;;;;;5051260;28;20203;-72
2021/03/06 03:05:35;;;;;;;7.67;4.67;;;;;;;;;;5049810;28;20196;-70
2021/03/06 03:08:07;;;;;;;7.97;4.90;;;;;;;;;;5053368;28;20188;-71
2021/03/06 03:10:35;;;;;;;9.13;4.47;;;;;;;;;;5052800;28;20203;-71
2021/03/06 03:13:06;;;;;;;6.87;4.40;;;;;;;;;;5048553;28;20205;-71
2021/03/06 03:15:42;;;;;;;7.13;4.33;;;;;;;;;;5048740;28;20192;-71
2021/03/06 03:18:13;;;;;;;6.00;4.80;;;;;;;;;;5049328;28;20181;-70
2021/03/06 03:20:48;;;;;;;8.20;4.30;;;;;;;;;;5045536;28;20545;-70
2021/03/06 03:23:20;;;;;;;8.20;4.13;;;;;;;;;;5047355;28;20192;-70
2021/03/06 03:25:46;;;;;;;10.87;4.93;;;;;;;;;;5047123;28;20185;-70
2021/03/06 03:28:13;;;;;;;9.03;4.20;;;;;;;;;;5050046;28;20204;-72
2021/03/06 03:30:38;;;;;;;9.23;4.23;;;;;;;;;;5047900;28;20220;-72
2021/03/06 03:33:05;;;;;;;5.97;4.47;;;;;;;;;;5050708;28;20689;-74
2021/03/06 03:35:31;;;;;;;7.30;4.60;;;;;;;;;;5044136;28;20191;-73
2021/03/06 03:37:57;;;;;;;10.83;4.33;;;;;;;;;;5052352;28;20193;-72
2021/03/06 03:40:22;;;;;;;7.77;4.13;;;;;;;;;;5052629;28;20205;-72
2021/03/06 03:42:48;;;;;;;8.97;3.97;;;;;;;;;;5049794;28;20601;-73
2021/03/06 03:45:14;;;;;;;7.77;4.20;;;;;;;;;;5053020;28;20177;-71
2021/03/06 03:47:40;;;;;;;5.17;3.80;;;;;;;;;;5049287;28;20236;-72
2021/03/06 03:50:07;;;;;;;11.80;4.23;;;;;;;;;;5048855;28;20262;-71
2021/03/06 03:52:35;;;;;;;8.13;4.47;;;;;;;;;;5042066;28;20186;-72
2021/03/06 03:55:01;;;;;;;7.10;4.40;;;;;;;;;;5049584;28;20601;-72
2021/03/06 03:57:26;;;;;;;7.30;5.00;;;;;;;;;;5049767;28;20178;-71
2021/03/06 03:59:52;;;;;;;8.53;4.23;;;;;;;;;;5052663;28;20686;-72
2021/03/06 04:02:21;;;;;;;5.00;3.73;;;;;;;;;;5050148;28;20228;-72
2021/03/06 04:04:46;;;;;;;7.10;4.10;;;;;;;;;;5050997;28;20263;-72
2021/03/06 04:07:11;;;;;;;9.43;4.37;;;;;;;;;;5048107;28;20264;-72
2021/03/06 04:09:36;;;;;;;7.33;3.90;;;;;;;;;;5049924;28;20213;-72
2021/03/06 04:12:02;;;;;;;6.30;4.50;;;;;;;;;;5048976;28;20188;-73
2021/03/06 04:14:27;;;;;;;5.63;3.77;;;;;;;;;;5052274;28;20205;-72
2021/03/06 04:16:52;;;;;;;6.77;4.23;;;;;;;;;;5039187;28;20227;-72
2021/03/06 04:19:17;;;;;;;9.17;3.20;;;;;;;;;;5052597;28;20193;-72
2021/03/06 04:21:42;;;;;;;8.47;3.90;;;;;;;;;;5046134;28;20537;-72
2021/03/06 04:24:08;;;;;;;5.90;3.97;;;;;;;;;;5046062;28;20237;-72
2021/03/06 04:26:33;;;;;;;7.50;3.93;;;;;;;;;;5051013;28;20650;-74
2021/03/06 04:28:58;;;;;;;8.03;4.23;;;;;;;;;;5044854;28;20343;-71
2021/03/06 04:31:23;;;;;;;8.07;4.40;;;;;;;;;;5050093;28;20185;-73
2021/03/06 04:33:48;;;;;;;8.10;4.23;;;;;;;;;;5050697;28;20205;-72
2021/03/06 04:36:13;;;;;;;7.73;4.27;;;;;;;;;;5049292;28;20540;-72
2021/03/06 04:38:39;;;;;;;7.70;4.10;;;;;;;;;;5044320;28;20228;-72
2021/03/06 04:41:04;;;;;;;6.50;3.90;;;;;;;;;;5051285;28;20172;-72
2021/03/06 04:43:29;;;;;;;9.40;4.27;;;;;;;;;;5047522;28;20623;-72
2021/03/06 04:45:54;;;;;;;9.43;4.60;;;;;;;;;;5051551;28;20219;-72
2021/03/06 04:48:19;;;;;;;8.60;4.20;;;;;;;;;;5049492;28;20182;-72
2021/03/06 04:50:45;;;;;;;9.93;4.70;;;;;;;;;;5057676;28;20279;-72
2021/03/06 04:53:10;;;;;;;7.27;3.90;;;;;;;;;;5048066;28;20198;-72
2021/03/06 04:55:35;;;;;;;8.87;4.87;;;;;;;;;;5051711;28;20674;-72
2021/03/06 04:58:00;;;;;;;7.70;3.90;;;;;;;;;;5052682;28;20586;-71
2021/03/06 05:00:26;;;;;;;8.90;4.53;;;;;;;;;;5050156;28;20276;-72
2021/03/06 05:02:51;;;;;;;6.57;4.10;;;;;;;;;;5048563;28;20658;-73
2021/03/06 05:05:17;;;;;;;7.70;4.23;;;;;;;;;;5051026;28;20197;-72
2021/03/06 05:07:42;;;;;;;8.33;4.30;;;;;;;;;;5043300;28;20709;-71
2021/03/06 05:10:07;;;;;;;9.70;4.47;;;;;;;;;;5050516;28;20209;-72
2021/03/06 05:12:32;;;;;;;10.47;4.17;;;;;;;;;;5038734;28;20189;-72
2021/03/06 05:14:58;;;;;;;8.73;4.37;;;;;;;;;;5049153;28;20181;-73
2021/03/06 05:17:23;;;;;;;9.13;4.30;;;;;;;;;;5047111;28;20261;-72
2021/03/06 05:19:48;;;;;;;8.07;4.60;;;;;;;;;;5049701;28;20207;-73
2021/03/06 05:22:14;;;;;;;5.30;4.13;;;;;;;;;;5050333;28;20223;-72
2021/03/06 05:24:39;;;;;;;6.07;4.07;;;;;;;;;;5054316;28;20191;-73
2021/03/06 05:27:04;;;;;;;7.50;4.43;;;;;;;;;;5050357;28;20185;-70
2021/03/06 05:29:30;;;;;;;10.43;4.80;;;;;;;;;;5047978;28;20240;-72
2021/03/06 05:31:55;;;;;;;13.33;4.67;;;;;;;;;;5047286;28;20185;-73
2021/03/06 05:34:21;;;;;;;6.43;4.17;;;;;;;;;;5049989;28;20262;-72
2021/03/06 05:36:46;;;;;;;6.60;4.00;;;;;;;;;;5045252;28;20182;-72
2021/03/06 05:39:11;;;;;;;9.87;4.47;;;;;;;;;;5047692;28;20282;-72
2021/03/06 05:41:37;;;;;;;6.23;4.33;;;;;;;;;;5046151;28;20239;-72
2021/03/06 05:44:02;;;;;;;7.97;4.10;;;;;;;;;;5052184;28;20186;-73
2021/03/06 05:46:27;;;;;;;6.60;3.67;;;;;;;;;;5048842;28;20187;-71
2021/03/06 05:48:53;;;;;;;8.33;4.33;;;;;;;;;;5047955;28;20201;-73
2021/03/06 05:51:19;;;;;;;8.10;4.40;;;;;;;;;;5042424;28;20186;-71
2021/03/06 05:53:45;;;;;;;8.20;5.40;;;;;;;;;;5048761;28;20201;-72
2021/03/06 05:56:12;;;;;;;11.50;4.60;;;;;;;;;;5051074;28;20547;-72
2021/03/06 05:58:41;;;;;;;9.23;4.37;;;;;;;;;;5053268;28;20184;-73
2021/03/06 06:01:06;;;;;;;7.63;4.83;;;;;;;;;;5052513;28;20213;-74
2021/03/06 06:03:32;;;;;;;16.10;5.10;;;;;;;;;;5052100;28;20197;-71
2021/03/06 06:05:57;;;;;;;9.53;5.30;;;;;;;;;;5061945;28;20213;-72
2021/03/06 06:08:23;;;;;;;7.97;4.20;;;;;;;;;;5066431;28;20183;-73
2021/03/06 06:10:49;;;;;;;9.40;5.03;;;;;;;;;;5048452;28;20193;-72
2021/03/06 06:13:14;;;;;;;10.10;5.20;;;;;;;;;;5052294;28;20200;-73
2021/03/06 06:15:39;;;;;;;8.13;4.80;;;;;;;;;;5047683;28;20428;-72
2021/03/06 06:18:04;;;;;;;8.70;5.23;;;;;;;;;;5050991;28;20653;-73
2021/03/06 06:20:30;;;;;;;8.43;5.20;;;;;;;;;;5052163;28;20194;-72
2021/03/06 06:23:11;;;;;;;11.37;5.80;;;;;;;;;;5050403;28;20226;-73
2021/03/06 06:25:36;;;;;;;7.53;5.47;;;;;;;;;;5048256;28;20544;-71
2021/03/06 06:28:02;;;;;;;7.87;5.17;;;;;;;;;;5051510;28;20185;-72
2021/03/06 06:30:27;;;;;;;10.00;5.47;;;;;;;;;;5050441;28;20212;-72
2021/03/06 06:32:53;;;;;;;9.37;5.33;;;;;;;;;;5053142;28;20702;-71
2021/03/06 06:35:18;;;;;;;7.93;5.07;;;;;;;;;;5049686;28;20639;-72
2021/03/06 06:37:58;;;;;;;8.93;5.37;;;;;;;;;;5041017;28;20183;-71
2021/03/06 06:40:25;;;;;;;10.73;5.53;;;;;;;;;;5048677;28;20283;-71
2021/03/06 06:42:51;;;;;;;6.73;5.17;;;;;;;;;;5050036;28;20192;-72
2021/03/06 06:45:16;;;;;;;11.60;5.83;;;;;;;;;;5053667;28;20181;-71
2021/03/06 06:47:42;;;;;;;10.80;6.07;;;;;;;;;;5049366;28;20191;-71
2021/03/06 06:50:09;;;;;;;7.97;5.67;;;;;;;;;;5053128;28;20208;-71
2021/03/06 06:52:36;;;;;;;10.97;6.07;;;;;;;;;;5048942;28;20674;-72
2021/03/06 06:55:01;;;;;;;10.10;5.67;;;;;;;;;;5054218;28;20853;-71
2021/03/06 06:57:27;;;;;;;11.97;6.37;;;;;;;;;;5051105;28;20209;-72
2021/03/06 06:59:54;;;;;;;11.83;7.30;;;;;;;;;;5048592;28;20297;-71
2021/03/06 07:02:19;;;;;;;9.20;6.87;;;;;;;;;;5055117;28;20189;-71
2021/03/06 07:04:54;;;;;;;12.47;6.80;;;;;;;;;;5051766;28;20169;-71
2021/03/06 07:07:20;;;;;;;11.73;7.80;;;;;;;;;;5050581;28;20224;-71
2021/03/06 07:09:58;;;;;;;11.20;7.23;;;;;;;;;;5051009;28;20233;-71
2021/03/06 07:12:24;;;;;;;12.70;7.47;;;;;;;;;;5049437;28;20185;-71
2021/03/06 07:14:50;;;;;;;11.60;7.80;;;;;;;;;;5052333;28;20185;-72
2021/03/06 07:17:15;;;;;;;11.27;8.03;;;;;;;;;;5041916;28;20184;-71
2021/03/06 07:19:41;;;;;;;12.40;7.97;;;;;;;;;;5046533;28;20201;-71
2021/03/06 07:22:06;;;;;;;13.23;8.40;;;;;;;;;;5050155;28;20182;-71
2021/03/06 07:24:31;;;;;;;15.17;8.80;;;;;;;;;;5054746;28;20213;-72
2021/03/06 07:26:56;;;;;;;12.77;8.47;;;;;;;;;;5054041;28;20431;-72
2021/03/06 07:29:22;;;;;;;13.23;7.93;;;;;;;;;;5052904;28;20213;-72
2021/03/06 07:31:51;;;;;;;13.17;8.40;;;;;;;;;;5049986;28;20350;-71
2021/03/06 07:34:18;;;;;;;13.27;8.43;;;;;;;;;;5053282;28;20688;-71
2021/03/06 07:36:45;;;;;;;12.60;7.97;;;;;;;;;;5049261;28;20182;-71
2021/03/06 07:39:12;;;;;;;12.93;7.27;;;;;;;;;;5043159;28;20227;-73
2021/03/06 07:41:40;;;;;;;14.00;8.63;;;;;;;;;;5044160;28;20188;-72
2021/03/06 07:44:06;;;;;;;10.00;7.87;;;;;;;;;;5052493;28;20182;-71
2021/03/06 07:46:31;;;;;;;11.93;6.50;;;;;;;;;;5051014;28;20666;-71
2021/03/06 07:48:57;;;;;;;8.90;5.73;;;;;;;;;;5050351;28;20341;-72
2021/03/06 07:51:23;;;;;;;9.60;5.83;;;;;;;;;;5040045;28;20177;-73
2021/03/06 07:53:48;;;;;;;8.13;6.03;;;;;;;;;;5037307;28;20212;-72
2021/03/06 07:56:14;;;;;;;8.03;5.40;;;;;;;;;;5037629;28;20261;-70
2021/03/06 07:58:49;;;;;;;7.27;5.03;;;;;;;;;;5040597;28;20544;-71
2021/03/06 08:01:27;;;;;;;10.63;4.30;;;;;;;;;;5038361;28;20583;-72
2021/03/06 08:03:53;;;;;;;7.67;4.03;;;;;;;;;;5036454;28;20567;-72
2021/03/06 08:06:19;;;;;;;9.33;4.87;;;;;;;;;;5042949;28;20181;-70
2021/03/06 08:08:44;;;;;;;9.90;4.83;;;;;;;;;;5045043;28;20387;-70
2021/03/06 08:11:11;;;;;;;7.80;3.97;;;;;;;;;;5038064;28;20325;-71
2021/03/06 08:13:36;;;;;;;8.20;3.37;;;;;;;;;;5050175;28;20244;-70
2021/03/06 08:16:19;;;;;;;8.30;4.00;;;;;;;;;;5036778;28;20217;-70
2021/03/06 08:18:45;;;;;;;6.57;3.20;;;;;;;;;;5039323;28;20225;-70
2021/03/06 08:21:26;;;;;;;3.60;2.83;;;;;;;;;;5036681;28;20205;-71
2021/03/06 08:24:11;;;;;;;10.73;3.83;;;;;;;;;;5039064;28;20667;-71
2021/03/06 08:26:36;;;;;;;3.50;2.50;;;;;;;;;;5037577;28;20267;-71
2021/03/06 08:29:23;;;;;;;4.43;2.33;;;;;;;;;;5041853;28;20675;-73
2021/03/06 08:32:01;;;;;;;7.40;2.30;;;;;;;;;;5038062;28;20272;-71
2021/03/06 08:34:27;;;;;;;6.03;2.37;;;;;;;;;;5038363;28;20527;-71
2021/03/06 08:37:13;;;;;;;6.63;2.10;;;;;;;;;;5043835;28;20181;-70
2021/03/06 08:39:39;;;;;;;3.63;2.00;;;;;;;;;;5038421;28;20209;-70
2021/03/06 08:42:04;;;;;;;9.53;2.87;;;;;;;;;;5043510;28;20181;-73
2021/03/06 08:44:29;;;;;;;5.73;2.20;;;;;;;;;;5044923;28;20228;-69
2021/03/06 08:46:55;;;;;;;7.37;2.13;;;;;;;;;;5041415;28;20265;-71
2021/03/06 08:49:21;;;;;;;6.67;1.90;;;;;;;;;;5040228;28;20197;-70
2021/03/06 08:51:46;;;;;;;5.70;1.93;;;;;;;;;;5041753;28;20186;-70
2021/03/06 08:54:12;;;;;;;6.13;2.03;;;;;;;;;;5038485;28;20229;-72
2021/03/06 08:56:38;;;;;;;4.87;1.87;;;;;;;;;;5036940;28;20188;-71
2021/03/06 08:59:03;;;;;;;8.30;1.90;;;;;;;;;;5035309;28;20580;-71
2021/03/06 09:01:32;;;;;;;5.53;1.90;;;;;;;;;;5040678;28;20296;-71
2021/03/06 09:03:57;;;;;;;4.53;1.73;;;;;;;;;;5035112;28;20190;-72
2021/03/06 09:06:32;;;;;;;2.83;1.43;;;;;;;;;;5042557;28;20197;-70
2021/03/06 09:08:58;;;;;;;4.23;2.10;;;;;;;;;;5037528;28;20201;-72
2021/03/06 09:11:24;;;;;;;6.03;1.90;;;;;;;;;;5038957;28;20663;-71
2021/03/06 09:13:50;;;;;;;6.77;2.20;;;;;;;;;;5037241;28;20291;-70
2021/03/06 09:16:16;;;;;;;5.40;1.90;;;;;;;;;;5036783;28;20265;-71
2021/03/06 09:18:41;;;;;;;9.03;2.60;;;;;;;;;;5040900;28;20212;-71
2021/03/06 09:21:10;;;;;;;6.63;1.87;;;;;;;;;;5039844;28;20186;-70
2021/03/06 09:23:37;;;;;;;9.07;1.90;;;;;;;;;;5037661;28;20177;-71
2021/03/06 09:26:07;;;;;;;6.13;2.07;;;;;;;;;;5036523;28;20174;-70
2021/03/06 09:28:33;;;;;;;4.33;1.47;;;;;;;;;;5037012;28;20264;-70
2021/03/06 09:31:00;;;;;;;5.77;1.97;;;;;;;;;;5037016;28;20264;-71
2021/03/06 09:33:25;;;;;;;6.73;2.47;;;;;;;;;;5036803;28;20293;-71
2021/03/06 09:35:53;;;;;;;5.83;1.67;;;;;;;;;;5039749;28;20257;-71
2021/03/06 09:38:18;;;;;;;8.03;2.60;;;;;;;;;;5035633;28;20236;-72
2021/03/06 09:40:44;;;;;;;3.50;1.60;;;;;;;;;;5040758;28;20691;-70
2021/03/06 09:43:11;;;;;;;7.90;1.23;;;;;;;;;;5046452;28;20178;-71
2021/03/06 09:45:36;;;;;;;8.37;1.27;;;;;;;;;;5048052;28;20243;-70
2021/03/06 09:48:03;;;;;;;7.33;1.37;;;;;;;;;;5045498;28;20170;-71
2021/03/06 09:50:28;;;;;;;5.10;1.47;;;;;;;;;;5041888;28;20233;-71
2021/03/06 09:52:53;;;;;;;4.37;1.33;;;;;;;;;;5046853;28;20236;-73
2021/03/06 09:55:19;;;;;;;2.80;1.60;;;;;;;;;;5037986;28;20377;-71
2021/03/06 09:57:44;;;;;;;6.13;1.93;;;;;;;;;;5037850;28;20185;-71
2021/03/06 10:00:29;;;;;;;3.43;1.53;;;;;;;;;;5037222;28;20193;-71
2021/03/06 10:02:55;;;;;;;4.17;1.40;;;;;;;;;;5035734;28;20563;-70
2021/03/06 10:05:21;;;;;;;5.70;2.07;;;;;;;;;;5035637;28;20166;-70
2021/03/06 10:07:46;;;;;;;7.30;1.67;;;;;;;;;;5040677;28;20201;-70
2021/03/06 10:10:12;;;;;;;9.53;3.13;;;;;;;;;;5037113;28;20235;-70
2021/03/06 10:12:42;;;;;;;7.90;1.47;;;;;;;;;;5037121;28;20171;-70
2021/03/06 10:15:07;;;;;;;5.30;1.33;;;;;;;;;;5038157;28;20193;-72
2021/03/06 10:17:33;;;;;;;5.07;1.60;;;;;;;;;;5037372;28;20178;-71
2021/03/06 10:19:58;;;;;;;4.27;1.57;;;;;;;;;;5039037;28;20557;-72
2021/03/06 10:22:23;;;;;;;5.73;2.13;;;;;;;;;;5036734;28;20663;-70
2021/03/06 10:24:52;;;;;;;3.50;1.10;;;;;;;;;;5037691;28;20188;-70
2021/03/06 10:27:30;;;;;;;3.07;1.40;;;;;;;;;;5038977;28;20556;-70
2021/03/06 10:30:14;;;;;;;3.00;1.30;;;;;;;;;;5036214;28;20220;-70
2021/03/06 10:32:43;;;;;;;5.20;1.13;;;;;;;;;;5036161;28;20189;-71
2021/03/06 10:35:28;;;;;;;1.90;1.03;;;;;;;;;;5038284;28;20408;-70
2021/03/06 10:37:53;;;;;;;6.03;1.60;;;;;;;;;;5037170;28;20182;-71
2021/03/06 10:40:18;;;;;;;4.20;0.90;;;;;;;;;;5038079;28;20208;-70
2021/03/06 10:42:52;;;;;;;3.93;0.90;;;;;;;;;;5035899;28;20170;-71
2021/03/06 10:45:23;;;;;;;1.87;0.73;;;;;;;;;;5037261;28;20288;-71
2021/03/06 10:47:49;;;;;;;1.57;0.80;;;;;;;;;;5038256;28;20195;-70
2021/03/06 10:50:25;;;;;;;5.77;1.10;;;;;;;;;;5036448;28;20237;-71
2021/03/06 10:52:50;;;;;;;3.23;0.93;;;;;;;;;;5039476;28;20245;-71
2021/03/06 10:55:15;;;;;;;1.40;0.50;;;;;;;;;;5039716;28;20220;-72
2021/03/06 10:57:50;;;;;;;4.07;0.90;;;;;;;;;;5045776;28;20423;-71
2021/03/06 11:00:22;;;;;;;2.13;1.00;;;;;;;;;;5041586;28;20326;-71
2021/03/06 11:02:57;;;;;;;2.93;0.90;;;;;;;;;;5047466;28;20182;-72
2021/03/06 11:05:23;;;;;;;0.97;0.60;;;;;;;;;;5045033;28;20180;-71
2021/03/06 11:07:48;;;;;;;3.33;0.90;;;;;;;;;;5045981;28;20192;-70
2021/03/06 11:10:15;;;;;;;4.40;0.90;;;;;;;;;;5047704;28;20197;-71
2021/03/06 11:12:53;;;;;;;2.80;1.10;;;;;;;;;;5038599;28;20189;-70
2021/03/06 11:15:19;;;;;;;1.20;0.70;;;;;;;;;;5038729;28;20650;-71
2021/03/06 11:17:45;;;;;;;2.10;0.80;;;;;;;;;;5036826;28;20177;-70
2021/03/06 11:20:12;;;;;;;2.40;1.67;;;;;;;;;;5040213;28;20201;-70
2021/03/06 11:22:37;;;;;;;6.13;0.90;;;;;;;;;;5039910;28;20178;-72
2021/03/06 11:25:06;;;;;;;2.07;1.00;;;;;;;;;;5044500;28;20173;-71
2021/03/06 11:27:44;;;;;;;3.43;1.17;;;;;;;;;;5044613;28;20186;-70
2021/03/06 11:30:10;;;;;;;2.33;0.87;;;;;;;;;;5039772;28;20247;-70
2021/03/06 11:32:35;;;;;;;1.33;0.67;;;;;;;;;;5044336;28;20186;-71
2021/03/06 11:35:00;;;;;;;1.77;0.73;;;;;;;;;;5043034;28;20261;-71
2021/03/06 11:37:26;;;;;;;1.97;0.87;;;;;;;;;;5051841;28;20178;-71
2021/03/06 11:39:51;;;;;;;4.13;1.40;;;;;;;;;;5046916;28;20293;-71
2021/03/06 11:42:16;;;;;;;2.00;0.87;;;;;;;;;;5049128;28;20605;-70
2021/03/06 11:44:41;;;;;;;1.60;0.87;;;;;;;;;;5043893;28;20228;-70
2021/03/06 11:47:06;;;;;;;6.03;1.17;;;;;;;;;;5048731;28;20292;-70
2021/03/06 11:49:31;;;;;;;1.73;0.80;;;;;;;;;;5053150;28;20248;-71
2021/03/06 11:51:57;;;;;;;2.53;0.90;;;;;;;;;;5048276;28;20201;-72
2021/03/06 11:54:22;;;;;;;1.63;0.83;;;;;;;;;;5037092;28;20788;-70
2021/03/06 11:56:47;;;;;;;1.97;1.07;;;;;;;;;;5039702;28;20545;-71
2021/03/06 11:59:12;;;;;;;2.30;1.10;;;;;;;;;;5041051;28;20197;-71
2021/03/06 12:01:37;;;;;;;2.17;0.80;;;;;;;;;;5039740;28;20181;-72
2021/03/06 12:04:03;;;;;;;4.03;1.00;;;;;;;;;;5049562;28;20861;-71
2021/03/06 12:06:28;;;;;;;3.80;1.40;;;;;;;;;;5046083;28;20185;-70
2021/03/06 12:08:53;;;;;;;1.83;1.15;;;;;;;;;;5046388;28;20220;-71
2021/03/06 12:11:19;;;;;;;4.37;1.73;;;;;;;;;;5046985;28;20584;-72
2021/03/06 12:13:44;;;;;;;2.03;1.60;;;;;;;;;;5048256;28;20206;-70
2021/03/06 12:16:09;;;;;;;4.27;1.60;;;;;;;;;;5051992;28;20327;-72
2021/03/06 12:18:34;;;;;;;1.53;1.20;;;;;;;;;;5040227;28;20671;-74
2021/03/06 12:20:59;;;;;;;2.50;1.27;;;;;;;;;;5044247;28;20265;-72
2021/03/06 12:23:25;;;;;;;3.30;1.30;;;;;;;;;;5048255;28;20566;-71
2021/03/06 12:25:50;;;;;;;2.30;1.60;;;;;;;;;;5047552;28;20335;-72
2021/03/06 12:28:16;;;;;;;2.20;2.00;;;;;;;;;;5044822;28;20553;-71
2021/03/06 12:30:41;;;;;;;2.50;1.40;;;;;;;;;;5041857;28;20202;-71
2021/03/06 12:33:06;;;;;;;2.67;1.57;;;;;;;;;;5037562;28;20208;-71
2021/03/06 12:35:32;;;;;;;2.67;1.43;;;;;;;;;;5047955;28;20264;-72
2021/03/06 12:37:57;;;;;;;2.70;1.90;;;;;;;;;;5047819;28;20224;-71
2021/03/06 12:40:22;;;;;;;3.20;2.03;;;;;;;;;;5040579;28;20206;-71
2021/03/06 12:42:47;;;;;;;5.20;1.67;;;;;;;;;;5035481;28;20213;-72
2021/03/06 12:45:13;;;;;;;1.90;1.20;;;;;;;;;;5038033;28;20268;-71
2021/03/06 12:47:38;;;;;;;4.20;2.57;;;;;;;;;;5048173;28;20587;-72
2021/03/06 12:50:05;;;;;;;2.20;1.60;;;;;;;;;;5044141;28;20252;-73
2021/03/06 12:52:30;;;;;;;2.42;1.38;;;;;;;;;;5040308;28;20189;-71
2021/03/06 12:54:56;;;;;;;3.33;1.23;;;;;;;;;;5047472;28;20217;-71
2021/03/06 12:57:21;;;;;;;1.67;1.15;;;;;;;;;;5045968;28;20228;-71
2021/03/06 12:59:47;;;;;;;2.58;1.67;;;;;;;;;;5042112;28;20281;-71
2021/03/06 13:02:12;;;;;;;1.88;1.30;;;;;;;;;;5044171;28;20180;-71
2021/03/06 13:04:37;;;;;;;2.47;1.15;;;;;;;;;;5040202;28;20588;-72
2021/03/06 13:07:02;;;;;;;2.22;1.58;;;;;;;;;;5046977;28;20310;-71
2021/03/06 13:09:28;;;;;;;3.17;1.85;;;;;;;;;;5042109;28;20201;-71
2021/03/06 13:11:53;;;;;;;4.20;1.70;;;;;;;;;;5037185;28;20213;-71
2021/03/06 13:14:18;;;;;;;4.93;1.73;;;;;;;;;;5041687;28;20690;-72
2021/03/06 13:16:43;;;;;;;2.83;1.52;;;;;;;;;;5042684;28;20174;-72
2021/03/06 13:19:08;;;;;;;3.95;1.63;;;;;;;;;;5043298;28;20491;-71
2021/03/06 13:21:34;;;;;;;3.30;1.70;;;;;;;;;;5043146;28;20192;-71
2021/03/06 13:23:59;;;;;;;5.13;1.30;;;;;;;;;;5048719;28;20610;-71
2021/03/06 13:26:24;;;;;;;2.28;1.27;;;;;;;;;;5050556;28;20184;-71
2021/03/06 13:28:50;;;;;;;2.67;1.10;;;;;;;;;;5048711;28;20202;-73
2021/03/06 13:31:15;;;;;;;3.05;1.35;;;;;;;;;;5044207;28;20659;-71
2021/03/06 13:33:40;;;;;;;1.60;1.10;;;;;;;;;;5045341;28;20206;-73
2021/03/06 13:36:06;;;;;;;3.08;1.42;;;;;;;;;;5039019;28;20233;-69
2021/03/06 13:38:32;;;;;;;1.80;1.00;;;;;;;;;;5041925;28;20174;-69
2021/03/06 13:40:57;;;;;;;3.45;1.60;;;;;;;;;;5049442;28;20247;-71
2021/03/06 13:43:22;;;;;;;3.63;1.10;;;;;;;;;;5042990;28;20217;-72
2021/03/06 13:45:47;;;;;;;1.73;1.08;;;;;;;;;;5044141;28;20173;-71
2021/03/06 13:48:12;;;;;;;4.03;1.20;;;;;;;;;;5043331;28;20240;-71
2021/03/06 13:50:37;;;;;;;3.63;1.75;;;;;;;;;;5042464;28;20232;-71
2021/03/06 13:53:04;;;;;;;3.00;1.60;;;;;;;;;;5050294;28;20205;-69
2021/03/06 13:55:30;;;;;;;2.70;1.23;;;;;;;;;;5048512;28;20647;-72
2021/03/06 13:57:55;;;;;;;3.88;1.30;;;;;;;;;;5049135;28;20185;-69
2021/03/06 14:00:20;;;;;;;1.65;1.20;;;;;;;;;;5040402;28;20287;-69
2021/03/06 14:02:46;;;;;;;4.30;1.42;;;;;;;;;;5042865;28;20311;-69
2021/03/06 14:05:11;;;;;;;2.92;1.27;;;;;;;;;;5041786;28;20181;-70
2021/03/06 14:07:36;;;;;;;2.80;1.50;;;;;;;;;;5040066;28;20257;-69
2021/03/06 14:10:02;;;;;;;3.40;1.20;;;;;;;;;;5044467;28;20197;-72
2021/03/06 14:12:27;;;;;;;2.10;1.00;;;;;;;;;;5033794;28;20214;-70
2021/03/06 14:14:53;;;;;;;2.20;1.40;;;;;;;;;;5047202;28;20228;-72
2021/03/06 14:17:18;;;;;;;3.47;1.50;;;;;;;;;;5047432;28;20505;-71
2021/03/06 14:19:44;;;;;;;1.50;1.30;;;;;;;;;;5049707;28;20198;-68
2021/03/06 14:22:09;;;;;;;2.42;1.40;;;;;;;;;;5053231;28;20170;-72
2021/03/06 14:24:34;;;;;;;3.53;1.40;;;;;;;;;;5052035;28;20209;-72
2021/03/06 14:26:59;;;;;;;2.60;1.30;;;;;;;;;;5052830;28;20181;-71
2021/03/06 14:29:24;;;;;;;2.40;1.00;;;;;;;;;;5063986;28;20221;-72
2021/03/06 14:31:50;;;;;;;2.95;1.10;;;;;;;;;;5058013;28;20630;-70
2021/03/06 14:34:15;;;;;;;1.23;0.90;;;;;;;;;;5057397;28;20200;-72
2021/03/06 14:36:41;;;;;;;2.10;1.02;;;;;;;;;;5050712;28;20186;-71
2021/03/06 14:39:07;;;;;;;5.53;1.25;;;;;;;;;;5055304;28;20231;-71